Time;durP1;ratioP1;P1;durP2;ratioP2;P2;SDS_P1;SDS_P2;PMS_P1;PMS_P2;Temp;Humidity;BMP_temperature;BMP_pressure;BME280_temperature;BME280_humidity;BME280_pressure;Samples;Min_cycle;Max_cycle;Signal;HPM_P1;HPM_P2
2020/12/27 00:02:12;;;;;;;35.45;25.45;;;0.50;91.10;;;;;;5108937;28;20687;-78
2020/12/27 00:04:43;;;;;;;37.53;25.70;;;0.50;91.00;;;;;;5109624;28;20515;-78
2020/12/27 00:07:16;;;;;;;39.78;24.98;;;0.50;90.80;;;;;;5110022;28;20623;-78
2020/12/27 00:09:44;;;;;;;37.97;26.80;;;0.50;90.50;;;;;;5109042;28;20211;-78
2020/12/27 00:12:18;;;;;;;38.22;27.25;;;0.50;90.30;;;;;;5110252;28;20516;-78
2020/12/27 00:14:44;;;;;;;44.33;27.70;;;0.40;90.70;;;;;;5108639;28;20182;-78
2020/12/27 00:17:11;;;;;;;36.00;27.10;;;0.40;91.10;;;;;;5108445;28;20176;-78
2020/12/27 00:19:44;;;;;;;37.80;27.08;;;0.40;91.20;;;;;;5108023;28;20264;-78
2020/12/27 00:22:11;;;;;;;40.67;26.27;;;0.40;90.90;;;;;;5109888;28;20160;-78
2020/12/27 00:24:36;;;;;;;35.47;24.73;;;0.40;90.90;;;;;;5109161;28;20198;-78
2020/12/27 00:27:08;;;;;;;38.20;26.13;;;0.50;90.80;;;;;;5109619;28;20623;-78
2020/12/27 00:29:36;;;;;;;35.53;24.80;;;0.40;91.10;;;;;;5108739;28;20448;-78
2020/12/27 00:32:05;;;;;;;35.53;25.55;;;0.40;91.00;;;;;;5109215;28;20186;-78
2020/12/27 00:34:33;;;;;;;36.97;26.67;;;0.40;91.20;;;;;;5109415;27;20192;-78
2020/12/27 00:36:59;;;;;;;35.15;24.80;;;0.40;91.30;;;;;;5109587;28;20199;-78
2020/12/27 00:39:26;;;;;;;34.97;25.88;;;0.40;91.20;;;;;;5087724;28;20302;-78
2020/12/27 00:41:59;;;;;;;31.02;24.48;;;0.40;90.80;;;;;;5088588;28;20222;-78
2020/12/27 00:44:25;;;;;;;33.67;25.33;;;0.40;90.40;;;;;;5089128;28;20186;-78
2020/12/27 00:46:50;;;;;;;37.07;25.77;;;0.40;90.60;;;;;;5087569;28;20629;-78
2020/12/27 00:49:23;;;;;;;35.53;26.23;;;0.30;90.80;;;;;;5089377;28;20699;-78
2020/12/27 00:51:50;;;;;;;31.98;24.05;;;0.30;90.60;;;;;;5088008;28;21001;-78
2020/12/27 00:54:19;;;;;;;33.55;25.67;;;0.40;91.30;;;;;;5087151;28;20188;-78
2020/12/27 00:56:51;;;;;;;34.00;26.05;;;0.40;90.40;;;;;;5088429;28;20176;-78
2020/12/27 00:59:18;;;;;;;37.35;26.80;;;0.40;91.20;;;;;;5088718;28;20660;-78
2020/12/27 01:01:46;;;;;;;35.45;25.13;;;0.40;90.80;;;;;;5086747;28;20681;-79
2020/12/27 01:04:12;;;;;;;34.70;24.00;;;0.40;90.80;;;;;;5086408;28;20184;-78
2020/12/27 01:06:38;;;;;;;36.77;24.57;;;0.40;90.70;;;;;;5087862;28;20235;-78
2020/12/27 01:09:06;;;;;;;36.53;25.52;;;0.30;91.10;;;;;;5088794;28;20645;-78
2020/12/27 01:11:32;;;;;;;34.35;25.73;;;0.30;90.80;;;;;;5087473;28;20207;-78
2020/12/27 01:13:58;;;;;;;31.67;24.80;;;0.30;91.10;;;;;;5086648;28;20265;-78
2020/12/27 01:16:23;;;;;;;35.23;24.70;;;0.40;90.80;;;;;;5088375;28;20176;-78
2020/12/27 01:18:58;;;;;;;33.53;24.33;;;0.40;89.80;;;;;;5085520;28;20315;-78
2020/12/27 01:21:25;;;;;;;30.35;23.88;;;0.30;90.30;;;;;;5088339;28;20250;-78
2020/12/27 01:23:53;;;;;;;31.52;23.40;;;0.30;90.20;;;;;;5086979;28;20739;-78
2020/12/27 01:26:32;;;;;;;29.05;22.42;;;0.30;90.40;;;;;;5088020;28;20175;-78
2020/12/27 01:29:02;;;;;;;32.75;23.13;;;0.30;90.00;;;;;;5087442;28;20184;-78
2020/12/27 01:31:28;;;;;;;29.67;24.50;;;0.30;91.00;;;;;;5087836;28;20188;-78
2020/12/27 01:33:57;;;;;;;33.13;23.00;;;0.30;90.30;;;;;;5087785;28;20184;-78
2020/12/27 01:36:33;;;;;;;32.45;22.92;;;0.40;90.80;;;;;;5085271;28;20176;-78
2020/12/27 01:39:08;;;;;;;31.65;21.70;;;0.40;90.20;;;;;;5102897;28;20642;-78
2020/12/27 01:41:40;;;;;;;30.65;21.30;;;0.40;90.00;;;;;;5106764;28;20179;-78
2020/12/27 01:44:11;;;;;;;27.27;21.02;;;0.40;89.60;;;;;;5108094;28;20267;-78
2020/12/27 01:46:45;;;;;;;32.40;21.92;;;0.40;89.50;;;;;;5106212;28;20186;-78
2020/12/27 01:49:12;;;;;;;27.52;20.88;;;0.30;90.30;;;;;;5108680;28;20620;-78
2020/12/27 01:51:41;;;;;;;29.55;22.08;;;0.40;90.30;;;;;;5107674;28;20646;-78
2020/12/27 01:54:07;;;;;;;29.23;20.48;;;0.40;89.70;;;;;;5106693;28;20218;-78
2020/12/27 01:56:47;;;;;;;29.83;21.83;;;0.30;89.30;;;;;;5106247;28;20558;-78
2020/12/27 01:59:24;;;;;;;29.88;20.75;;;0.40;89.70;;;;;;5107020;28;20268;-79
2020/12/27 02:01:50;;;;;;;30.23;21.35;;;0.40;89.60;;;;;;5106611;28;20228;-79
2020/12/27 02:04:19;;;;;;;30.03;22.10;;;0.40;89.50;;;;;;5108102;28;20263;-79
2020/12/27 02:06:51;;;;;;;33.75;23.05;;;0.30;90.20;;;;;;5107953;28;20397;-79
2020/12/27 02:09:20;;;;;;;23.58;19.20;;;0.30;89.70;;;;;;5106415;28;20191;-79
2020/12/27 02:11:45;;;;;;;27.65;18.67;;;0.30;90.00;;;;;;5106256;28;20176;-78
2020/12/27 02:14:11;;;;;;;27.00;19.30;;;0.30;89.80;;;;;;5108062;28;20184;-78
2020/12/27 02:16:43;;;;;;;31.90;21.02;;;0.30;89.30;;;;;;5107232;28;20683;-78
2020/12/27 02:19:12;;;;;;;27.90;20.98;;;0.20;89.60;;;;;;5106757;28;20251;-78
2020/12/27 02:21:39;;;;;;;28.02;20.38;;;0.20;89.70;;;;;;5107895;28;20164;-78
2020/12/27 02:24:10;;;;;;;28.67;21.10;;;0.20;89.30;;;;;;5105682;28;20306;-78
2020/12/27 02:26:54;;;;;;;33.38;22.40;;;0.10;90.60;;;;;;5107094;28;20156;-78
2020/12/27 02:29:30;;;;;;;30.33;21.15;;;0.10;90.00;;;;;;5107615;28;20254;-79
2020/12/27 02:31:59;;;;;;;32.97;22.15;;;0.10;90.20;;;;;;5107653;28;20532;-79
2020/12/27 02:34:27;;;;;;;31.00;20.52;;;0.10;90.10;;;;;;5106140;28;20190;-79
2020/12/27 02:36:54;;;;;;;30.25;21.10;;;0.10;90.00;;;;;;5106732;28;20172;-79
2020/12/27 02:39:22;;;;;;;32.13;22.25;;;0.10;90.30;;;;;;5105859;28;20219;-79
2020/12/27 02:41:52;;;;;;;26.45;20.50;;;0.10;90.80;;;;;;5110724;28;20176;-78
2020/12/27 02:44:20;;;;;;;28.83;20.88;;;0.00;90.30;;;;;;5110559;28;20186;-78
2020/12/27 02:46:46;;;;;;;30.55;19.83;;;0.00;90.60;;;;;;5111612;28;20176;-79
2020/12/27 02:49:12;;;;;;;27.00;19.97;;;0.00;90.40;;;;;;5109870;28;20523;-79
2020/12/27 02:51:37;;;;;;;28.95;20.38;;;0.00;90.60;;;;;;5110936;28;20174;-79
2020/12/27 02:54:03;;;;;;;30.93;20.20;;;-0.10;90.10;;;;;;5110523;28;20234;-78
2020/12/27 02:56:29;;;;;;;28.67;21.50;;;0.00;90.50;;;;;;5110557;28;20206;-79
2020/12/27 02:59:00;;;;;;;27.50;20.02;;;-0.10;90.00;;;;;;5108618;28;20219;-79
2020/12/27 03:01:29;;;;;;;26.63;20.95;;;-0.10;90.40;;;;;;5111255;28;20198;-79
2020/12/27 03:03:54;;;;;;;26.40;19.85;;;-0.10;90.70;;;;;;5109406;28;20894;-79
2020/12/27 03:06:20;;;;;;;26.27;19.20;;;0.00;90.00;;;;;;5110778;28;20213;-79
2020/12/27 03:08:55;;;;;;;30.70;20.13;;;0.00;90.00;;;;;;5109104;28;20184;-79
2020/12/27 03:11:35;;;;;;;28.08;20.17;;;0.00;89.70;;;;;;5109553;28;21048;-79
2020/12/27 03:14:08;;;;;;;29.85;20.25;;;0.00;89.70;;;;;;5108389;28;20607;-79
2020/12/27 03:16:36;;;;;;;29.08;20.30;;;0.00;90.40;;;;;;5109371;28;20593;-79
2020/12/27 03:19:05;;;;;;;23.98;19.50;;;0.00;90.60;;;;;;5110858;28;20207;-79
2020/12/27 03:21:31;;;;;;;27.42;19.35;;;-0.10;90.30;;;;;;5110757;28;20691;-79
2020/12/27 03:23:56;;;;;;;26.40;19.10;;;-0.20;90.80;;;;;;5109488;28;20190;-79
2020/12/27 03:26:25;;;;;;;30.40;21.30;;;-0.10;90.20;;;;;;5110362;28;20172;-79
2020/12/27 03:28:53;;;;;;;27.50;20.00;;;-0.10;90.60;;;;;;5110481;28;20512;-79
2020/12/27 03:31:19;;;;;;;24.92;18.48;;;0.00;90.70;;;;;;5109651;28;20663;-79
2020/12/27 03:33:44;;;;;;;25.30;17.73;;;0.10;90.30;;;;;;5110369;28;20183;-79
2020/12/27 03:36:19;;;;;;;26.37;18.00;;;0.10;90.10;;;;;;5110542;28;20646;-79
2020/12/27 03:38:45;;;;;;;22.77;17.35;;;0.10;89.70;;;;;;5110352;28;20215;-79
2020/12/27 03:41:13;;;;;;;24.03;18.90;;;0.10;90.30;;;;;;5110517;28;20706;-79
2020/12/27 03:43:54;;;;;;;27.95;19.30;;;0.10;90.20;;;;;;5110002;28;20507;-79
2020/12/27 03:46:22;;;;;;;25.83;17.80;;;0.10;90.40;;;;;;5109252;28;20175;-79
2020/12/27 03:48:51;;;;;;;26.60;20.20;;;0.10;90.30;;;;;;5110004;28;20519;-79
2020/12/27 03:51:29;;;;;;;22.77;17.17;;;0.10;90.30;;;;;;5108764;28;20211;-79
2020/12/27 03:54:03;;;;;;;25.55;19.08;;;0.10;90.20;;;;;;5108070;28;20699;-79
2020/12/27 03:56:29;;;;;;;25.77;17.98;;;0.20;90.60;;;;;;5110484;28;20581;-79
2020/12/27 03:58:54;;;;;;;28.73;18.37;;;0.20;90.80;;;;;;5109414;28;20218;-79
2020/12/27 04:01:20;;;;;;;22.87;18.07;;;0.20;89.80;;;;;;5109338;28;20624;-79
2020/12/27 04:03:49;;;;;;;26.70;17.23;;;0.20;90.30;;;;;;5109171;28;20179;-79
2020/12/27 04:06:14;;;;;;;24.52;17.60;;;0.20;90.00;;;;;;5109735;28;20171;-79
2020/12/27 04:08:43;;;;;;;25.90;17.73;;;0.20;90.30;;;;;;5107850;28;20256;-79
2020/12/27 04:11:08;;;;;;;22.85;16.95;;;0.10;90.40;;;;;;5109705;28;20260;-79
2020/12/27 04:13:37;;;;;;;23.23;17.77;;;0.10;90.00;;;;;;5108034;28;20703;-79
2020/12/27 04:16:02;;;;;;;26.75;18.65;;;0.20;90.00;;;;;;5109486;28;20172;-79
2020/12/27 04:18:37;;;;;;;22.93;16.13;;;0.20;90.70;;;;;;5108788;28;20650;-79
2020/12/27 04:21:03;;;;;;;24.25;15.50;;;0.20;89.50;;;;;;5109531;28;20387;-79
2020/12/27 04:23:31;;;;;;;24.93;15.67;;;0.10;90.20;;;;;;5109095;28;20183;-79
2020/12/27 04:26:03;;;;;;;23.25;15.50;;;0.20;90.00;;;;;;5109528;28;20379;-79
2020/12/27 04:28:41;;;;;;;21.83;15.88;;;0.30;89.60;;;;;;5107684;28;20176;-79
2020/12/27 04:31:20;;;;;;;20.55;14.60;;;0.20;89.40;;;;;;5109414;28;20167;-79
2020/12/27 04:33:47;;;;;;;20.58;15.07;;;0.30;89.10;;;;;;5109747;28;20172;-79
2020/12/27 04:36:15;;;;;;;17.77;14.13;;;0.30;89.10;;;;;;5107755;28;20176;-79
2020/12/27 04:38:41;;;;;;;19.75;14.25;;;0.30;88.60;;;;;;5107624;28;20207;-79
2020/12/27 04:41:07;;;;;;;16.33;13.33;;;0.40;89.20;;;;;;5109482;28;20195;-79
2020/12/27 04:43:42;;;;;;;16.77;13.20;;;0.40;87.50;;;;;;5109068;28;20178;-79
2020/12/27 04:46:10;;;;;;;17.75;12.40;;;0.40;89.50;;;;;;5108283;28;20167;-79
2020/12/27 04:48:51;;;;;;;18.80;14.00;;;0.40;87.30;;;;;;5108989;28;20649;-79
2020/12/27 04:51:21;;;;;;;17.92;12.93;;;0.30;87.70;;;;;;5107723;28;20164;-79
2020/12/27 04:53:49;;;;;;;16.65;13.20;;;0.20;88.60;;;;;;5107420;28;20228;-79
2020/12/27 04:56:26;;;;;;;19.00;13.07;;;0.30;88.90;;;;;;5109018;28;20179;-79
2020/12/27 04:58:57;;;;;;;20.35;14.30;;;0.20;89.20;;;;;;5107441;28;20243;-79
2020/12/27 05:01:26;;;;;;;18.20;11.85;;;0.20;89.20;;;;;;5108194;28;20172;-79
2020/12/27 05:03:57;;;;;;;21.55;16.95;;;0.30;88.30;;;;;;5106952;28;20188;-79
2020/12/27 05:06:32;;;;;;;49.65;31.58;;;0.40;88.90;;;;;;5107593;28;20160;-79
2020/12/27 05:09:09;;;;;;;23.23;17.52;;;0.40;88.20;;;;;;5107662;28;20179;-79
2020/12/27 05:11:37;;;;;;;30.98;24.30;;;0.40;88.30;;;;;;5107219;28;20179;-79
2020/12/27 05:14:12;;;;;;;60.17;43.60;;;0.40;88.40;;;;;;5108917;28;20210;-79
2020/12/27 05:16:40;;;;;;;28.60;22.02;;;0.40;87.50;;;;;;5108704;28;20160;-79
2020/12/27 05:19:13;;;;;;;21.73;15.82;;;0.40;87.00;;;;;;5108463;28;20679;-79
2020/12/27 05:21:41;;;;;;;28.20;17.45;;;0.50;87.20;;;;;;5108968;28;20233;-79
2020/12/27 05:24:16;;;;;;;16.38;12.60;;;0.50;87.10;;;;;;5106134;28;20634;-79
2020/12/27 05:26:46;;;;;;;14.15;10.95;;;0.50;87.00;;;;;;5107174;28;20313;-79
2020/12/27 05:29:34;;;;;;;45.75;24.75;;;0.40;87.60;;;;;;5107244;28;20195;-79
2020/12/27 05:32:00;;;;;;;49.15;24.25;;;0.20;88.20;;;;;;5108256;28;20168;-79
2020/12/27 05:34:30;;;;;;;41.60;20.63;;;0.20;88.30;;;;;;5108502;28;20184;-79
2020/12/27 05:37:00;;;;;;;41.45;23.80;;;0.20;88.50;;;;;;5107864;28;20183;-79
2020/12/27 05:39:30;;;;;;;22.40;14.52;;;0.40;88.70;;;;;;5086066;28;20216;-79
2020/12/27 05:42:09;;;;;;;15.70;12.35;;;0.40;87.60;;;;;;5087534;28;20743;-79
2020/12/27 05:44:46;;;;;;;14.23;10.48;;;0.30;88.10;;;;;;5086392;28;20554;-79
2020/12/27 05:47:12;;;;;;;14.82;10.73;;;0.20;88.50;;;;;;5087892;28;20575;-79
2020/12/27 05:49:41;;;;;;;13.17;10.13;;;0.20;88.50;;;;;;5086655;28;20632;-79
2020/12/27 05:52:22;;;;;;;15.32;11.15;;;0.20;88.10;;;;;;5087912;28;20212;-79
2020/12/27 05:54:55;;;;;;;13.73;11.35;;;0.20;88.70;;;;;;5088056;28;20625;-79
2020/12/27 05:57:22;;;;;;;16.33;11.73;;;0.30;89.80;;;;;;5087019;28;20199;-79
2020/12/27 05:59:49;;;;;;;14.70;11.02;;;0.40;88.40;;;;;;5087463;28;20303;-79
2020/12/27 06:02:42;;;;;;;14.23;11.02;;;0.30;88.20;;;;;;5087801;28;20172;-79
2020/12/27 06:05:13;;;;;;;16.00;10.63;;;0.40;88.00;;;;;;5086544;28;20238;-79
2020/12/27 06:07:44;;;;;;;16.27;12.48;;;0.40;87.70;;;;;;5087325;28;20165;-79
2020/12/27 06:10:15;;;;;;;15.45;11.30;;;0.40;88.00;;;;;;5086421;28;20184;-79
2020/12/27 06:13:22;;;;;;;15.45;11.48;;;0.30;88.50;;;;;;5084792;28;20255;-79
2020/12/27 06:15:58;;;;;;;14.32;9.43;;;0.40;88.70;;;;;;5086381;28;20746;-79
2020/12/27 06:18:31;;;;;;;15.63;10.20;;;0.40;88.60;;;;;;5087408;28;20188;-79
2020/12/27 06:21:13;;;;;;;16.30;12.00;;;0.40;88.70;;;;;;5086666;28;20173;-79
2020/12/27 06:23:42;;;;;;;14.93;10.88;;;0.50;88.60;;;;;;5085853;28;20161;-79
2020/12/27 06:26:10;;;;;;;18.92;11.55;;;0.40;89.00;;;;;;5087361;28;20165;-79
2020/12/27 06:28:36;;;;;;;14.35;11.25;;;0.50;89.20;;;;;;5086343;28;20291;-79
2020/12/27 06:31:08;;;;;;;14.57;10.60;;;0.40;89.20;;;;;;5086769;28;20308;-79
2020/12/27 06:33:42;;;;;;;15.50;11.85;;;0.50;88.80;;;;;;5087401;28;20690;-79
2020/12/27 06:36:31;;;;;;;15.05;11.30;;;0.50;89.20;;;;;;5105266;28;20167;-79
2020/12/27 06:39:22;;;;;;;16.90;11.60;;;0.50;88.80;;;;;;5107056;28;20206;-79
2020/12/27 06:42:28;;;;;;;17.08;13.07;;;0.50;88.50;;;;;;5107434;28;20156;-79
2020/12/27 06:44:54;;;;;;;18.58;13.38;;;0.50;87.90;;;;;;5083833;28;20196;-79
2020/12/27 06:47:47;;;;;;;19.77;14.20;;;0.60;88.10;;;;;;5103202;28;20191;-79
2020/12/27 06:50:18;;;;;;;19.77;15.07;;;0.70;87.70;;;;;;5106995;28;20187;-79
2020/12/27 06:52:44;;;;;;;19.42;12.82;;;0.70;86.90;;;;;;5104717;28;20227;-79
2020/12/27 06:55:10;;;;;;;19.53;13.80;;;0.70;86.00;;;;;;5104873;28;20191;-79
2020/12/27 06:57:40;;;;;;;19.30;12.73;;;0.60;86.60;;;;;;5106886;28;20448;-79
2020/12/27 07:00:31;;;;;;;16.38;11.75;;;0.70;86.20;;;;;;5105900;28;20445;-79
2020/12/27 07:03:21;;;;;;;23.77;15.30;;;0.70;86.80;;;;;;5105537;28;20176;-79
2020/12/27 07:05:50;;;;;;;22.65;15.45;;;0.70;86.00;;;;;;5105531;28;20176;-79
2020/12/27 07:08:45;;;;;;;22.20;13.73;;;0.80;86.30;;;;;;5107062;28;20172;-79
2020/12/27 07:11:19;;;;;;;16.75;12.77;;;0.80;86.90;;;;;;5107269;28;20519;-79
2020/12/27 07:13:56;;;;;;;17.67;11.40;;;0.80;86.40;;;;;;5105888;28;20190;-78
2020/12/27 07:16:42;;;;;;;20.45;14.00;;;0.80;86.60;;;;;;5107244;28;20195;-78
2020/12/27 07:19:17;;;;;;;26.27;17.98;;;0.70;87.00;;;;;;5105873;28;20235;-79
2020/12/27 07:21:50;;;;;;;34.03;21.27;;;0.80;87.90;;;;;;5106054;28;20712;-79
2020/12/27 07:24:28;;;;;;;29.98;21.77;;;0.80;87.10;;;;;;5105450;28;20192;-79
2020/12/27 07:26:54;;;;;;;23.70;18.63;;;0.80;87.00;;;;;;5109165;28;20158;-79
2020/12/27 07:29:30;;;;;;;20.67;15.73;;;0.80;87.10;;;;;;5110951;28;20180;-79
2020/12/27 07:31:58;;;;;;;18.67;12.90;;;0.80;86.60;;;;;;5110474;27;20527;-78
2020/12/27 07:34:39;;;;;;;20.13;13.20;;;0.70;86.70;;;;;;5109588;28;20530;-78
2020/12/27 07:37:18;;;;;;;16.70;12.40;;;0.60;87.10;;;;;;5110330;28;20532;-79
2020/12/27 07:39:53;;;;;;;16.95;13.25;;;0.60;88.20;;;;;;5110729;27;20290;-79
2020/12/27 07:42:48;;;;;;;15.93;13.45;;;0.50;89.10;;;;;;5110967;28;20156;-79
2020/12/27 07:45:14;;;;;;;18.23;12.35;;;0.70;88.10;;;;;;5105287;27;20275;-79
2020/12/27 07:47:41;;;;;;;18.17;12.40;;;0.60;88.30;;;;;;5110439;28;20262;-78
2020/12/27 07:50:20;;;;;;;17.77;12.75;;;0.60;88.10;;;;;;5108037;28;20632;-79
2020/12/27 07:52:57;;;;;;;16.88;11.45;;;0.70;88.20;;;;;;5108813;28;20292;-78
2020/12/27 07:55:39;;;;;;;15.82;12.40;;;0.70;88.10;;;;;;5110702;28;20194;-79
2020/12/27 07:58:08;;;;;;;20.00;14.13;;;0.70;88.70;;;;;;5108874;28;20180;-79
2020/12/27 08:00:52;;;;;;;22.40;15.23;;;0.70;89.90;;;;;;5110437;28;20260;-79
2020/12/27 08:03:19;;;;;;;17.63;13.60;;;0.80;90.00;;;;;;5109689;28;20152;-78
2020/12/27 08:05:45;;;;;;;19.35;14.05;;;0.70;88.90;;;;;;5109726;28;20708;-78
2020/12/27 08:08:14;;;;;;;20.40;12.70;;;0.60;88.60;;;;;;5108949;28;20251;-78
2020/12/27 08:10:45;;;;;;;26.27;13.70;;;0.60;89.60;;;;;;5108575;28;20238;-78
2020/12/27 08:13:21;;;;;;;20.08;13.25;;;0.70;89.80;;;;;;5110207;28;20200;-78
2020/12/27 08:15:46;;;;;;;22.27;14.85;;;0.70;89.60;;;;;;5109713;28;20627;-78
2020/12/27 08:18:20;;;;;;;21.20;14.10;;;0.80;89.80;;;;;;5109970;28;20187;-78
2020/12/27 08:20:50;;;;;;;22.05;14.68;;;0.70;89.50;;;;;;5109563;28;20238;-78
2020/12/27 08:23:17;;;;;;;23.02;14.50;;;0.70;89.60;;;;;;5109244;28;20176;-78
2020/12/27 08:25:45;;;;;;;19.75;13.10;;;0.80;89.10;;;;;;5109780;28;20514;-78
2020/12/27 08:28:17;;;;;;;18.25;12.90;;;0.70;90.00;;;;;;5109729;28;20180;-78
2020/12/27 08:30:47;;;;;;;18.88;14.05;;;0.70;89.90;;;;;;5108269;28;20274;-78
2020/12/27 08:33:14;;;;;;;15.25;13.50;;;0.80;90.10;;;;;;5109842;28;20188;-78
2020/12/27 08:35:43;;;;;;;16.98;12.80;;;0.80;90.10;;;;;;5109074;28;20191;-78
2020/12/27 08:38:47;;;;;;;18.40;13.70;;;0.90;90.20;;;;;;5108030;28;20513;-78
2020/12/27 08:41:30;;;;;;;16.33;12.23;;;1.00;90.10;;;;;;5107892;28;20200;-78
2020/12/27 08:44:28;;;;;;;17.65;13.15;;;1.00;89.80;;;;;;5108392;28;20167;-78
2020/12/27 08:47:01;;;;;;;20.05;14.68;;;1.00;89.40;;;;;;5109142;28;20299;-78
2020/12/27 08:49:56;;;;;;;21.80;14.82;;;1.00;89.70;;;;;;5109430;28;20461;-79
2020/12/27 08:52:24;;;;;;;20.63;14.15;;;1.00;90.10;;;;;;5107459;28;20227;-78
2020/12/27 08:55:02;;;;;;;22.48;14.55;;;1.10;89.30;;;;;;5108817;28;20176;-78
2020/12/27 08:57:28;;;;;;;18.88;13.88;;;1.10;89.20;;;;;;5109014;28;20647;-78
2020/12/27 09:00:05;;;;;;;21.98;14.27;;;1.20;90.10;;;;;;5109395;28;20203;-78
2020/12/27 09:02:41;;;;;;;19.45;14.65;;;1.10;90.00;;;;;;5107274;28;20227;-78
2020/12/27 09:05:11;;;;;;;21.13;15.00;;;1.20;90.00;;;;;;5108690;28;20171;-78
2020/12/27 09:07:46;;;;;;;22.20;15.27;;;1.20;90.10;;;;;;5107652;28;20191;-78
2020/12/27 09:10:13;;;;;;;22.13;16.35;;;1.20;90.50;;;;;;5107618;28;20199;-78
2020/12/27 09:12:55;;;;;;;20.13;15.35;;;1.20;90.20;;;;;;5108125;28;20776;-78
2020/12/27 09:15:39;;;;;;;24.40;17.30;;;1.20;90.10;;;;;;5108808;28;20172;-78
2020/12/27 09:18:06;;;;;;;24.33;17.70;;;1.30;90.00;;;;;;5107403;28;20186;-78
2020/12/27 09:20:39;;;;;;;29.40;21.80;;;1.30;89.70;;;;;;5107009;28;20751;-78
2020/12/27 09:23:29;;;;;;;22.17;17.00;;;1.30;88.70;;;;;;5108465;28;20611;-78
2020/12/27 09:26:13;;;;;;;23.35;17.50;;;1.20;90.10;;;;;;5108430;28;20188;-78
2020/12/27 09:28:40;;;;;;;23.92;17.30;;;1.30;90.20;;;;;;5106038;28;20710;-78
2020/12/27 09:31:11;;;;;;;24.35;17.65;;;1.20;90.10;;;;;;5108309;28;20195;-78
2020/12/27 09:34:05;;;;;;;28.77;21.60;;;1.20;90.00;;;;;;5108615;28;20168;-78
2020/12/27 09:36:31;;;;;;;27.50;18.17;;;1.20;90.40;;;;;;5087833;28;20185;-78
2020/12/27 09:39:00;;;;;;;25.97;17.47;;;1.20;90.70;;;;;;5103809;28;20632;-78
2020/12/27 09:41:38;;;;;;;27.90;20.42;;;1.10;90.80;;;;;;5106599;28;20760;-78
2020/12/27 09:44:10;;;;;;;28.77;18.45;;;1.20;91.30;;;;;;5106073;28;20160;-78
2020/12/27 09:46:49;;;;;;;26.27;19.27;;;1.30;91.70;;;;;;5108667;28;20207;-79
2020/12/27 09:49:31;;;;;;;23.05;17.15;;;1.30;92.00;;;;;;5107314;28;20183;-78
2020/12/27 09:52:07;;;;;;;26.63;20.02;;;1.30;92.20;;;;;;5107583;28;20932;-78
2020/12/27 09:54:37;;;;;;;116.35;41.58;;;1.30;92.70;;;;;;5108273;28;20179;-78
2020/12/27 09:57:22;;;;;;;51.22;25.65;;;1.40;93.30;;;;;;5108023;28;20176;-78
2020/12/27 09:59:49;;;;;;;37.72;21.70;;;1.30;92.90;;;;;;5107048;28;20199;-78
2020/12/27 10:02:21;;;;;;;31.67;21.63;;;1.30;92.90;;;;;;5106986;28;20713;-78
2020/12/27 10:04:47;;;;;;;144.93;47.80;;;1.20;93.10;;;;;;5107727;28;21012;-77
2020/12/27 10:07:13;;;;;;;64.90;30.10;;;1.20;93.90;;;;;;5107966;28;20578;-78
2020/12/27 10:09:44;;;;;;;226.23;65.90;;;1.20;94.10;;;;;;5106875;28;20447;-78
2020/12/27 10:12:13;;;;;;;137.43;52.00;;;1.30;94.20;;;;;;5107544;28;20199;-78
2020/12/27 10:14:38;;;;;;;136.95;49.33;;;1.30;94.30;;;;;;5107375;28;20246;-78
2020/12/27 10:17:04;;;;;;;71.83;34.30;;;1.30;94.40;;;;;;5107008;28;20266;-78
2020/12/27 10:19:36;;;;;;;52.60;28.73;;;1.30;94.60;;;;;;5107990;28;20748;-78
2020/12/27 10:22:05;;;;;;;145.27;48.80;;;1.30;94.60;;;;;;5107887;28;20172;-78
2020/12/27 10:24:32;;;;;;;245.30;70.10;;;1.30;95.00;;;;;;5108193;28;20218;-77
2020/12/27 10:27:02;;;;;;;362.70;93.68;;;1.40;95.00;;;;;;5107339;28;20566;-77
2020/12/27 10:29:28;;;;;;;113.50;38.60;;;1.30;94.80;;;;;;5107687;28;20221;-77
2020/12/27 10:31:56;;;;;;;65.45;28.48;;;1.40;94.90;;;;;;5107355;28;21026;-77
2020/12/27 10:34:22;;;;;;;47.97;28.75;;;1.30;95.50;;;;;;5107302;28;20708;-77
2020/12/27 10:36:52;;;;;;;129.25;47.00;;;1.30;95.50;;;;;;5107691;28;20182;-77
2020/12/27 10:39:18;;;;;;;68.47;33.05;;;1.20;95.80;;;;;;5107393;28;20195;-77
2020/12/27 10:41:45;;;;;;;67.50;32.20;;;1.20;95.80;;;;;;5107164;28;20180;-77
2020/12/27 10:44:15;;;;;;;51.28;28.70;;;1.20;95.90;;;;;;5107897;28;20172;-77
2020/12/27 10:46:51;;;;;;;37.38;24.77;;;1.20;95.80;;;;;;5106135;28;20180;-77
2020/12/27 10:49:23;;;;;;;32.20;23.63;;;1.20;96.10;;;;;;5106549;28;20239;-77
2020/12/27 10:51:50;;;;;;;31.23;21.80;;;1.20;96.10;;;;;;5106761;28;20583;-77
2020/12/27 10:54:15;;;;;;;41.58;26.55;;;1.20;96.10;;;;;;5104026;28;20235;-77
2020/12/27 10:56:45;;;;;;;76.23;39.80;;;1.20;96.30;;;;;;5105998;28;20184;-78
2020/12/27 10:59:13;;;;;;;64.15;35.67;;;1.30;96.30;;;;;;5106207;28;20674;-78
2020/12/27 11:01:53;;;;;;;99.15;41.38;;;1.30;96.60;;;;;;5108066;28;20207;-78
2020/12/27 11:04:21;;;;;;;83.43;37.05;;;1.30;96.50;;;;;;5107208;28;20176;-78
2020/12/27 11:06:47;;;;;;;46.40;26.27;;;1.40;96.40;;;;;;5108823;28;20293;-78
2020/12/27 11:09:12;;;;;;;41.80;25.70;;;1.30;96.30;;;;;;5109985;28;20274;-78
2020/12/27 11:11:38;;;;;;;40.17;24.57;;;1.30;96.40;;;;;;5108459;28;20195;-77
2020/12/27 11:14:05;;;;;;;45.07;29.70;;;1.30;96.40;;;;;;5102348;28;20299;-77
2020/12/27 11:16:34;;;;;;;58.45;34.17;;;1.40;96.50;;;;;;5111411;28;20390;-78
2020/12/27 11:19:01;;;;;;;45.60;31.55;;;1.40;96.40;;;;;;5099405;28;20299;-78
2020/12/27 11:21:27;;;;;;;72.13;39.35;;;1.40;96.70;;;;;;5100801;28;20270;-78
2020/12/27 11:23:58;;;;;;;79.20;38.35;;;1.40;96.60;;;;;;5109105;28;20184;-78
2020/12/27 11:26:27;;;;;;;105.30;45.40;;;1.50;96.50;;;;;;5100712;28;20180;-77
2020/12/27 11:28:58;;;;;;;59.60;32.92;;;1.50;96.60;;;;;;5114763;28;20681;-77
2020/12/27 11:31:24;;;;;;;55.70;30.35;;;1.50;96.60;;;;;;5106959;28;20184;-77
2020/12/27 11:33:52;;;;;;;53.97;30.83;;;1.50;96.40;;;;;;5096315;28;20183;-77
2020/12/27 11:36:18;;;;;;;52.47;28.85;;;1.60;96.60;;;;;;5109068;28;20302;-77
2020/12/27 11:38:49;;;;;;;39.63;25.63;;;1.60;96.50;;;;;;5095374;28;20251;-78
2020/12/27 11:41:20;;;;;;;42.45;26.10;;;1.60;96.40;;;;;;5090687;28;20756;-78
2020/12/27 11:43:46;;;;;;;38.85;23.48;;;1.60;96.40;;;;;;5090564;28;20168;-78
2020/12/27 11:46:27;;;;;;;38.20;23.83;;;1.50;96.50;;;;;;5089657;28;20199;-77
2020/12/27 11:48:52;;;;;;;38.55;23.20;;;1.50;96.70;;;;;;5089186;28;20515;-77
2020/12/27 11:51:21;;;;;;;36.13;23.43;;;1.40;96.80;;;;;;5095713;28;20191;-78
2020/12/27 11:53:46;;;;;;;37.83;26.52;;;1.50;97.00;;;;;;5087182;28;20220;-78
2020/12/27 11:56:21;;;;;;;39.83;28.07;;;1.50;96.90;;;;;;5088460;28;20515;-78
2020/12/27 11:58:53;;;;;;;42.03;27.02;;;1.60;96.70;;;;;;5087286;28;20164;-78
2020/12/27 12:01:19;;;;;;;37.35;25.52;;;1.60;97.10;;;;;;5088711;28;20184;-78
2020/12/27 12:03:47;;;;;;;32.53;25.20;;;1.60;96.90;;;;;;5087080;28;20310;-78
2020/12/27 12:06:21;;;;;;;36.20;24.10;;;1.60;96.90;;;;;;5088524;28;20255;-77
2020/12/27 12:08:50;;;;;;;30.85;22.05;;;1.60;96.80;;;;;;5086893;28;20175;-77
2020/12/27 12:11:16;;;;;;;30.83;24.65;;;1.50;97.10;;;;;;5087257;28;20237;-77
2020/12/27 12:13:50;;;;;;;34.13;25.63;;;1.60;97.10;;;;;;5090439;28;20173;-77
2020/12/27 12:16:25;;;;;;;38.05;25.45;;;1.70;97.10;;;;;;5090381;28;20489;-77
2020/12/27 12:18:56;;;;;;;33.40;25.20;;;1.70;97.10;;;;;;5089171;28;20271;-77
2020/12/27 12:21:22;;;;;;;34.25;25.58;;;1.70;96.90;;;;;;5089366;28;20644;-77
2020/12/27 12:23:51;;;;;;;33.50;25.10;;;1.70;96.80;;;;;;5091205;28;20238;-77
2020/12/27 12:26:19;;;;;;;35.78;26.70;;;1.60;97.00;;;;;;5090158;28;20396;-79
2020/12/27 12:28:48;;;;;;;39.72;30.50;;;1.60;97.40;;;;;;5089767;28;20655;-78
2020/12/27 12:31:17;;;;;;;36.50;28.83;;;1.60;97.10;;;;;;5090619;28;20188;-78
2020/12/27 12:33:47;;;;;;;37.45;26.48;;;1.70;97.20;;;;;;5091216;28;20165;-79
2020/12/27 12:36:17;;;;;;;43.35;28.23;;;1.60;97.00;;;;;;5108564;28;20194;-78
2020/12/27 12:38:52;;;;;;;38.38;28.58;;;1.60;97.20;;;;;;5109645;28;20201;-78
2020/12/27 12:41:26;;;;;;;36.50;25.85;;;1.60;97.30;;;;;;5109764;28;20570;-79
2020/12/27 12:44:20;;;;;;;31.50;22.65;;;1.60;97.40;;;;;;5108165;28;20215;-78
2020/12/27 12:46:57;;;;;;;35.95;22.73;;;1.60;97.40;;;;;;5110702;28;20219;-78
2020/12/27 12:49:26;;;;;;;30.92;22.55;;;1.50;97.60;;;;;;5109474;28;20544;-78
2020/12/27 12:51:54;;;;;;;35.78;26.23;;;1.60;97.80;;;;;;5110672;28;20184;-76
2020/12/27 12:54:23;;;;;;;40.75;28.33;;;1.60;97.60;;;;;;5110046;28;20235;-78
2020/12/27 12:56:56;;;;;;;38.70;24.30;;;1.60;97.60;;;;;;5110490;28;20183;-78
2020/12/27 12:59:28;;;;;;;47.78;30.98;;;1.60;97.80;;;;;;5110022;28;20577;-79